createdAt,value
2023-02-21T00:05:15.846Z,1.79
2023-02-21T00:25:21.644Z,1.68
2023-02-21T00:45:27.443Z,1.77
2023-02-21T01:05:33.246Z,2.20
2023-02-21T01:25:39.091Z,1.76
2023-02-21T01:45:44.933Z,1.79
2023-02-21T02:05:50.742Z,1.99
2023-02-21T02:25:56.563Z,2.05
2023-02-21T02:46:02.466Z,2.28
2023-02-21T03:06:08.200Z,2.05
2023-02-21T03:26:13.972Z,2.62
2023-02-21T03:46:19.849Z,2.28
2023-02-21T04:06:25.587Z,2.46
2023-02-21T04:26:31.362Z,2.48
2023-02-21T04:46:37.142Z,2.67
2023-02-21T05:06:42.927Z,2.60
2023-02-21T05:26:48.717Z,3.64
2023-02-21T05:46:54.499Z,2.84
2023-02-21T06:07:00.243Z,2.75
2023-02-21T06:27:06.016Z,2.93
2023-02-21T06:47:11.808Z,3.47
2023-02-21T07:07:17.627Z,2.98
2023-02-21T07:27:23.467Z,2.86
2023-02-21T07:47:29.238Z,3.73
2023-02-21T08:07:35.023Z,4.32
2023-02-21T08:27:40.827Z,4.33
2023-02-21T08:47:46.602Z,4.13
2023-02-21T09:07:52.357Z,4.05
2023-02-21T09:27:58.618Z,3.81
2023-02-21T09:48:04.447Z,3.72
2023-02-21T10:08:10.232Z,3.92
2023-02-21T10:28:16.050Z,4.00
2023-02-21T10:48:22.325Z,4.07
2023-02-21T11:08:28.101Z,3.62
2023-02-21T11:28:33.900Z,3.66
2023-02-21T11:48:39.697Z,3.68
2023-02-21T12:08:45.946Z,3.25
2023-02-21T12:28:52.203Z,2.89
2023-02-21T12:48:58.002Z,2.58
2023-02-21T13:09:04.222Z,2.57
2023-02-21T13:29:10.007Z,1.54
2023-02-21T13:49:15.780Z,1.21
2023-02-21T14:09:22.067Z,0.96
2023-02-21T14:29:27.838Z,0.94
2023-02-21T14:49:34.094Z,1.32
2023-02-21T15:09:40.398Z,1.33
2023-02-21T15:29:46.732Z,1.71
2023-02-21T15:49:53.051Z,1.53
2023-02-21T16:09:58.897Z,1.81
2023-02-21T16:30:05.194Z,1.74
2023-02-21T16:50:11.035Z,1.52
2023-02-21T17:10:17.288Z,1.93
2023-02-21T17:30:23.098Z,2.47
2023-02-21T17:50:28.834Z,4.64
2023-02-21T18:10:34.638Z,2.76
2023-02-21T18:30:40.508Z,3.02
2023-02-21T18:50:46.739Z,3.09
2023-02-21T19:10:52.549Z,2.84
2023-02-21T19:30:58.371Z,3.29
2023-02-21T19:51:04.169Z,2.72
2023-02-21T20:11:09.948Z,3.87
2023-02-21T20:31:16.253Z,4.00
2023-02-21T20:51:21.053Z,5.57
2023-02-21T21:11:27.283Z,5.40
2023-02-21T21:31:33.045Z,4.54
2023-02-21T21:51:38.951Z,4.05
2023-02-21T22:11:44.772Z,3.72
2023-02-21T22:31:52.318Z,4.35
2023-02-21T22:51:55.934Z,4.36
2023-02-21T23:12:01.716Z,4.52
2023-02-21T23:32:07.573Z,4.46
2023-02-21T23:52:13.415Z,4.30
